Latest Weather Observations for Noarlunga

IDS60901

Issued at 5:41 pm CDT Monday 30 March 2015 (issued every 10 minutes, with the page automatically refreshed every 10 minutes)

About weather observations | Map of Adelaide area stations | Latest observations for Adelaide area | Other Formats
Station Details ID: 023885 Name: NOARLUNGA Lat: -35.16 Lon: 138.51 Height: 55.0 m
Data from the previous 72 hours. | See also: Recent months at Noarlunga
Date/Time
CDT
Tmp

°C
App
Tmp
°C
Dew
Point
°C
Rel
Hum
%
Delta-T

°C
Wind Press
QNH
hPa
Press
MSL
hPa
Rain
since
9 am
mm
Dir
 
Spd
km/h
Gust
km/h
Spd
kts
Gust
kts
30/05:30pm 22.7 21.5 11.7 49 6.2 SW 9 13 5 7 - - 0.0
30/05:00pm 22.8 21.1 9.9 44 7.0 WSW 9 15 5 8 - - 0.0
30/04:30pm 22.5 20.7 10.9 48 6.4 SW 11 17 6 9 - - 0.0
30/04:00pm 22.6 21.2 12.3 52 5.9 WSW 11 17 6 9 - - 0.0
30/03:30pm 22.2 20.6 12.7 55 5.4 WSW 13 19 7 10 - - 0.0
30/03:00pm 22.5 20.9 12.7 54 5.6 WSW 13 17 7 9 - - 0.0
30/02:30pm 22.0 20.7 12.5 54 5.4 WNW 11 17 6 9 - - 0.0
30/02:00pm 22.3 21.5 12.8 55 5.4 W 9 15 5 8 - - 0.0
30/01:30pm 22.0 20.4 12.8 56 5.3 WNW 13 17 7 9 - - 0.0
30/01:00pm 21.8 20.5 12.6 56 5.2 WNW 11 17 6 9 - - 0.0
30/12:30pm 21.8 20.7 13.2 58 4.9 WNW 11 15 6 8 - - 0.0
30/12:00pm 21.3 20.3 12.4 57 5.0 WNW 9 15 5 8 - - 0.0
30/11:30am 20.9 19.7 12.8 60 4.6 WNW 11 15 6 8 - - 0.0
30/11:00am 20.9 20.0 12.6 59 4.7 WNW 9 13 5 7 - - 0.0
30/10:30am 22.1 21.9 11.8 52 5.8 NE 4 7 2 4 - - 0.0
30/10:00am 21.0 19.7 11.3 54 5.4 E 9 13 5 7 - - 0.0
30/09:30am 19.3 17.4 11.8 62 4.2 E 13 20 7 11 - - 0.0
30/09:00am 17.6 15.6 11.4 67 3.4 E 13 19 7 10 - - 0.0
30/08:30am 16.1 14.7 10.8 71 2.8 ESE 9 15 5 8 - - 0.0
30/08:00am 14.9 12.7 10.7 76 2.2 E 13 19 7 10 - - 0.0
30/07:30am 15.1 13.2 10.5 74 2.4 E 11 17 6 9 - - 0.0
30/07:00am 15.5 13.3 10.9 74 2.5 E 13 19 7 10 - - 0.0
30/06:30am 15.2 13.1 9.6 69 2.9 E 11 15 6 8 - - 0.0
30/06:00am 13.8 11.3 8.2 69 2.8 ESE 11 15 6 8 - - 0.0
30/05:30am 13.2 11.1 8.1 71 2.5 ESE 9 11 5 6 - - 0.0
30/05:00am 13.5 11.4 8.4 71 2.6 ESE 9 9 5 5 - - 0.0
30/04:30am 13.9 12.5 8.9 72 2.5 E 6 7 3 4 - - 0.0
30/04:00am 13.9 12.9 8.9 72 2.5 ENE 4 6 2 3 - - 0.0
30/03:30am 14.6 13.7 9.2 70 2.8 E 4 6 2 3 - - 0.0
30/03:00am 15.2 13.9 9.1 67 3.1 ENE 6 7 3 4 - - 0.0
30/02:30am 15.4 13.9 9.3 67 3.1 NE 7 9 4 5 - - 0.0
30/02:00am 15.8 15.0 9.5 66 3.3 ENE 4 6 2 3 - - 0.0
30/01:30am 15.7 14.8 9.1 65 3.4 ENE 4 6 2 3 - - 0.0
30/01:00am 16.2 15.3 9.4 64 3.5 E 4 6 2 3 - - 0.0
30/12:30am 16.6 15.4 9.5 63 3.7 E 6 6 3 3 - - 0.0
30/12:00am 16.8 16.0 9.5 62 3.8 ESE 4 6 2 3 - - 0.0
 
Date/Time
CDT
Tmp

°C
App
Tmp
°C
Dew
Point
°C
Rel
Hum
%
Delta-T

°C
Wind Press
QNH
hPa
Press
MSL
hPa
Rain
since
9 am
mm
Dir
 
Spd
km/h
Gust
km/h
Spd
kts
Gust
kts
29/11:30pm 17.0 16.1 9.4 61 4.0 SE 4 4 2 2 - - 0.0
29/11:00pm 17.1 17.1 9.8 62 3.8 CALM 0 0 0 0 - - 0.0
29/10:30pm 17.6 17.8 10.7 64 3.7 CALM 0 0 0 0 - - 0.0
29/10:00pm 18.4 17.8 10.3 59 4.3 S 4 4 2 2 - - 0.0
29/09:30pm 19.3 19.1 10.6 57 4.7 SSW 2 4 1 2 - - 0.0
29/09:00pm 19.5 19.2 11.3 59 4.5 SSW 4 7 2 4 - - 0.0
29/08:30pm 19.8 19.2 11.8 60 4.4 SW 6 7 3 4 - - 0.0
29/08:00pm 19.9 19.4 12.2 61 4.3 SW 6 6 3 3 - - 0.0
29/07:30pm 20.0 19.7 11.5 58 4.7 SW 4 6 2 3 - - 0.0
29/07:00pm 20.6 19.8 11.0 54 5.3 WSW 6 9 3 5 - - 0.0
29/06:30pm 21.1 20.4 11.4 54 5.4 WSW 6 9 3 5 - - 0.0
29/06:00pm 22.8 21.2 8.9 41 7.4 WNW 7 11 4 6 - - 0.0
29/05:30pm 23.3 21.5 7.8 37 8.2 WNW 7 11 4 6 - - 0.0
29/05:00pm 22.9 20.8 6.6 35 8.4 NW 7 13 4 7 - - 0.0
29/04:30pm 23.2 21.2 6.9 35 8.4 WNW 7 11 4 6 - - 0.0
29/04:00pm 22.4 20.8 8.9 42 7.2 WNW 7 11 4 6 - - 0.0
29/03:30pm 22.4 21.1 9.2 43 7.1 WSW 6 13 3 7 - - 0.0
29/03:00pm 21.7 20.0 8.2 42 7.1 SW 7 13 4 7 - - 0.0
29/02:30pm 21.4 19.6 9.3 46 6.5 W 9 15 5 8 - - 0.0
29/02:00pm 21.2 18.1 7.1 40 7.2 WNW 13 19 7 10 - - 0.0
29/01:30pm 22.6 19.8 6.8 36 8.1 WNW 11 17 6 9 - - 0.0
29/01:00pm 22.4 19.5 6.6 36 8.1 WNW 11 17 6 9 - - 0.0
29/12:30pm 22.4 19.7 5.8 34 8.4 WNW 9 15 5 8 - - 0.0
29/12:00pm 21.9 18.7 5.3 34 8.3 WNW 11 15 6 8 - - 0.0
29/11:30am 21.9 20.1 7.0 38 7.7 NNW 6 9 3 5 - - 0.0
29/11:00am 21.3 19.7 6.4 38 7.5 N 4 9 2 5 - - 0.0
29/10:30am 20.7 19.4 7.7 43 6.7 NNW 4 7 2 4 - - 0.0
29/10:00am 19.6 17.3 7.4 45 6.2 NNE 9 13 5 7 - - 0.0
29/09:30am 18.7 16.7 7.2 47 5.8 NNE 7 13 4 7 - - 0.0
29/09:00am 17.4 15.0 7.2 51 5.1 NE 9 11 5 6 - - 0.0
29/08:30am 16.2 13.8 6.9 54 4.6 NE 9 15 5 8 - - 0.0
29/08:00am 15.5 12.7 7.0 57 4.2 NE 11 13 6 7 - - 0.0
29/07:30am 14.8 12.9 6.6 58 4.0 ENE 6 9 3 5 - - 0.0
29/07:00am 14.9 13.4 6.7 58 4.0 ENE 4 6 2 3 - - 0.0
29/06:30am 14.7 13.2 6.8 59 3.9 ENE 4 6 2 3 - - 0.0
29/06:00am 14.9 13.4 6.7 58 4.0 NE 4 6 2 3 - - 0.0
29/05:30am 15.0 13.5 6.6 57 4.1 ENE 4 6 2 3 - - 0.0
29/05:00am 15.0 13.1 6.6 57 4.1 NE 6 6 3 3 - - 0.0
29/04:30am 15.0 13.4 6.3 56 4.2 ENE 4 6 2 3 - - 0.0
29/04:00am 15.2 13.2 6.2 55 4.4 ENE 6 7 3 4 - - 0.0
29/03:30am 15.5 13.6 6.5 55 4.4 ENE 6 9 3 5 - - 0.0
29/03:00am 15.3 12.8 6.6 56 4.2 NE 9 11 5 6 - - 0.0
29/02:30am 15.0 12.9 6.8 58 4.0 ENE 7 9 4 5 - - 0.0
29/02:00am 14.3 12.2 6.6 60 3.7 ENE 7 11 4 6 - - 0.0
29/01:30am 14.0 12.1 6.6 61 3.6 ENE 6 7 3 4 - - 0.0
29/01:00am 13.8 12.6 6.4 61 3.6 ENE 2 4 1 2 - - 0.0
29/12:30am 14.3 12.4 6.6 60 3.7 ENE 6 6 3 3 - - 0.0
29/12:00am 15.0 13.5 6.6 57 4.1 E 4 4 2 2 - - 0.0
 
Date/Time
CDT
Tmp

°C
App
Tmp
°C
Dew
Point
°C
Rel
Hum
%
Delta-T

°C
Wind Press
QNH
hPa
Press
MSL
hPa
Rain
since
9 am
mm
Dir
 
Spd
km/h
Gust
km/h
Spd
kts
Gust
kts
28/11:30pm 16.1 14.0 6.8 54 4.6 ENE 7 9 4 5 - - 0.0
28/11:00pm 16.1 14.0 6.5 53 4.7 ENE 7 9 4 5 - - 0.0
28/10:30pm 15.8 13.7 6.5 54 4.5 NE 7 9 4 5 - - 0.0
28/10:00pm 16.1 14.2 6.5 53 4.7 NE 6 7 3 4 - - 0.0
28/09:30pm 16.3 14.7 6.2 51 4.9 NE 4 6 2 3 - - 0.0
28/09:00pm 17.4 15.4 6.3 48 5.5 ENE 6 6 3 3 - - 0.0
28/08:30pm 17.4 15.4 6.3 48 5.5 ENE 6 6 3 3 - - 0.0
28/08:00pm 18.3 17.3 5.8 44 6.1 CALM 0 0 0 0 - - 0.0
28/07:30pm 19.1 18.2 5.9 42 6.5 CALM 0 0 0 0 - - 0.0
28/07:00pm 19.8 18.8 5.8 40 6.9 CALM 0 0 0 0 - - 0.0
28/06:30pm 20.2 18.5 5.8 39 7.2 WNW 4 6 2 3 - - 0.0
28/06:00pm 20.4 18.3 5.6 38 7.3 W 6 7 3 4 - - 0.0
28/05:30pm 20.6 18.2 5.4 37 7.5 NNW 7 11 4 6 - - 0.0
28/05:00pm 21.6 19.3 5.5 35 8.0 NNW 7 13 4 7 - - 0.0
28/04:30pm 20.9 18.2 5.7 37 7.6 NW 9 15 5 8 - - 0.0
28/04:00pm 21.2 19.3 7.4 41 7.1 NW 7 15 4 8 - - 0.0
28/03:30pm 20.4 18.4 8.7 47 6.2 W 9 15 5 8 - - 0.0
28/03:00pm 20.2 18.0 9.5 50 5.7 WNW 11 26 6 14 - - 0.0
28/02:30pm 20.5 18.5 10.0 51 5.7 WNW 11 17 6 9 - - 0.0
28/02:00pm 20.0 17.7 9.0 49 5.8 WNW 11 17 6 9 - - 0.0
28/01:30pm 19.7 17.7 8.7 49 5.8 NW 9 15 5 8 - - 0.0
28/01:00pm 20.0 17.6 8.7 48 5.9 NW 11 20 6 11 - - 0.0
28/12:30pm 19.7 16.9 8.4 48 5.9 NNW 13 22 7 12 - - 0.0
28/12:00pm 19.0 16.5 8.1 49 5.6 NNW 11 17 6 9 - - 0.0
28/11:30am 18.7 16.1 7.8 49 5.6 NNW 11 19 6 10 - - 0.0
28/11:00am 18.1 14.6 7.2 49 5.5 N 15 24 8 13 - - 0.0
28/10:30am 17.8 15.7 8.1 53 5.0 N 9 15 5 8 - - 0.0
28/10:00am 17.1 15.5 8.0 55 4.6 ENE 6 13 3 7 - - 0.0
28/09:30am 16.2 14.6 8.7 61 3.8 ENE 7 13 4 7 - - 0.0
28/09:00am 14.3 11.9 8.7 69 2.8 ENE 11 15 6 8 - - 0.0
28/08:30am 13.3 10.5 8.6 73 2.4 ENE 13 20 7 11 - - 0.0
28/08:00am 12.4 9.6 8.5 77 1.9 ENE 13 19 7 10 - - 0.0
28/07:30am 11.8 9.8 8.5 80 1.6 ENE 9 13 5 7 - - 0.0
28/07:00am 11.8 9.7 8.3 79 1.7 ENE 9 13 5 7 - - 0.0
28/06:30am 11.8 9.7 8.3 79 1.7 ENE 9 11 5 6 - - 0.0
28/06:00am 12.0 10.0 8.5 79 1.7 ENE 9 15 5 8 - - 0.0
28/05:30am 12.0 10.4 8.7 80 1.6 ENE 7 11 4 6 - - 0.0
28/05:00am 12.0 10.0 8.7 80 1.6 NE 9 13 5 7 - - 0.0
28/04:30am 12.0 10.4 8.7 80 1.6 NE 7 9 4 5 - - 0.0
28/04:00am 11.9 10.0 8.9 82 1.5 ENE 9 15 5 8 - - 0.0
28/03:30am 11.8 9.5 9.0 83 1.4 E 11 19 6 10 - - 0.0
28/03:00am 11.4 9.4 8.8 84 1.3 ESE 9 9 5 5 - - 0.0
28/02:30am 12.1 10.5 8.9 81 1.6 ESE 7 9 4 5 - - 0.0
28/02:00am 13.2 12.0 9.5 78 1.9 E 6 7 3 4 - - 0.0
28/01:30am 13.7 12.3 9.7 77 2.1 ENE 7 11 4 6 - - 0.0
28/01:00am 13.4 12.2 9.5 77 2.0 ESE 6 9 3 5 - - 0.0
28/12:30am 13.4 11.6 9.5 77 2.0 E 9 13 5 7 - - 0.0
28/12:00am 13.0 11.5 9.1 77 2.0 ESE 7 9 4 5 - - 0.0
 
Date/Time
CDT
Tmp

°C
App
Tmp
°C
Dew
Point
°C
Rel
Hum
%
Delta-T

°C
Wind Press
QNH
hPa
Press
MSL
hPa
Rain
since
9 am
mm
Dir
 
Spd
km/h
Gust
km/h
Spd
kts
Gust
kts
27/11:30pm 12.0 10.3 8.5 79 1.7 ESE 7 11 4 6 - - 0.0
27/11:00pm 12.1 10.4 8.2 77 1.9 ESE 7 9 4 5 - - 0.0
27/10:30pm 12.7 11.1 8.6 76 2.0 E 7 9 4 5 - - 0.0
27/10:00pm 12.7 11.0 8.4 75 2.1 ESE 7 9 4 5 - - 0.0
27/09:30pm 13.5 11.5 8.6 72 2.5 ESE 9 13 5 7 - - 0.0
27/09:00pm 13.9 11.9 8.7 71 2.6 ESE 9 13 5 7 - - 0.0
27/08:30pm 14.5 12.2 8.9 69 2.9 SE 11 19 6 10 - - 0.0
27/08:00pm 15.4 12.8 9.3 67 3.1 SE 13 20 7 11 - - 0.0
27/07:30pm 15.6 14.6 10.4 71 2.7 SSW 6 19 3 10 - - 0.0
27/07:00pm 15.9 14.9 10.2 69 3.0 W 6 7 3 4 - - 0.0
27/06:30pm 16.3 16.3 9.9 66 3.4 CALM 0 4 0 2 - - 0.0
27/06:00pm 15.7 15.0 10.2 70 2.9 N 4 6 2 3 - - 0.0

Latest Capital City Observations: Canberra | Sydney | Melbourne | Brisbane | Adelaide | Perth | Hobart | Darwin

Other Formats:

Comma delimited format used in spreadsheet applications
http://www.bom.gov.au/fwo/IDS60901/IDS60901.94808.axf

JavaScript Object Notation format (JSON) in row-major order
http://www.bom.gov.au/fwo/IDS60901/IDS60901.94808.json